Página principal
METAR-TAF:

METAR-TAF

Aeroportos :

Touho, Nova Caledónia

latitude: 20-47-25S, longitude: 165-15-34E, altura: 3 m

METAR: em falta

Hora: 15:35 (04:35 UTC)

Previsão

O boletim foi feito há 11 horas e 35 minutos, às 17:00 UTC
Previsão válida de 22 às 18 UTC a 23 às 18 UTC
Vento 12 kt de es-sudeste
Visibilidade 10 km ou mais
Poucas nuvensa uma altura de 1400 ft
Nuvens fragmentadasa uma altura de 2000 ft
Nuvens fragmentadasa uma altura de 3500 ft
Temporariamente
de 22 às 18 UTC a 23 às 06 UTC
Visibilidade: 4000 m
Nuvens fragmentadasa uma altura de 1400 ft
Poucas nuvensa uma altura de 1800 ft, Cumulus congestus.
aguaceiros de chuva
Probabilidade 30% :
Temporariamente
de 23 às 06 UTC a 23 às 18 UTC
Visibilidade: 4000 m
Nuvens fragmentadasa uma altura de 1400 ft
aguaceiros de chuva,

TAF: NWWU 221700Z 2218/2318 11012KT 9999 FEW014 BKN020 BKN035 TEMPO 2218/2306 4000 SHRA BKN014 FEW018TCU PROB30 TEMPO 2306/2318 4000 SHRA BKN014

Observações e previsões do tempo de mais de 4000 aeroportos (mensagens METAR e TAF).

As estações disponíveis são os pontos amarelos e vermelhos sobre o mapa.

Mova o rato sobre o mapa para ver o nome da estação.

Depois clique no ponto para visualizar as observações e previsões meteorológicas.

Para alterar o mapa : clique nos botões verdes com uma cruz preta para aumentar o zoom; no botão verde com uma pitada de zoom; ou nas setas verdes para mapas adjacentes.


METAR-TAF: